This is the latest recevied weather packets stored in our database for station/object OE-11140. If no packets are shown the sender has not sent any weather packets the latest 10 day(s).
| Time | Temp. | Humidity | Pressure | Rain* | Wind** | Luminosity | Snow |
|---|---|---|---|---|---|---|---|
| 1788109516 | 23.89° C | 54% | 1012.3 hPa | 0 mm | - | 73 W/m² | - |
| 1788108915 | 24.44° C | 51% | 1012.2 hPa | 0 mm | - | 80 W/m² | - |
| 1788108089 | 24.44° C | 50% | 1012.1 hPa | 0 mm | - | 80 W/m² | - |
| 1788107716 | 24.44° C | 50% | 1012 hPa | 0 mm | - | 80 W/m² | - |
| 1788107116 | 25° C | 49% | 1012.1 hPa | 0 mm | - | 106 W/m² | - |
| 1788106289 | 25.56° C | 49% | 1011.9 hPa | 0 mm | - | 159 W/m² | - |
| 1788105916 | 25.56° C | 46% | 1011.9 hPa | 0 mm | - | 139 W/m² | - |
| 1788105316 | 26.11° C | 45% | 1011.7 hPa | 0 mm | - | 278 W/m² | - |
| 1788104489 | 26.67° C | 45% | 1011.6 hPa | 0 mm | - | 265 W/m² | - |
| 1788104116 | 26.67° C | 44% | 1011.5 hPa | 0 mm | - | 358 W/m² | - |
| 1788103516 | 26.67° C | 46% | 1011.5 hPa | 0 mm | - | 364 W/m² | - |
| 1788102688 | 26.11° C | 44% | 1011.7 hPa | 0 mm | - | 152 W/m² | - |
| 1788102316 | 26.67° C | 43% | 1011.6 hPa | 0 mm | - | 252 W/m² | - |
| 1788101716 | 27.22° C | 43% | 1011.3 hPa | 0 mm | - | 510 W/m² | - |
| 1788100889 | 27.78° C | 43% | 1011.2 hPa | 0 mm | - | 537 W/m² | - |
| 1788100515 | 27.22° C | 41% | 1011.4 hPa | 0 mm | - | 524 W/m² | - |
| 1788099916 | 27.22° C | 42% | 1011.4 hPa | 0 mm | - | 577 W/m² | - |
| 1788099088 | 27.22° C | 42% | 1011.4 hPa | 0 mm | - | 590 W/m² | - |
| 1788098716 | 27.78° C | 41% | 1011.5 hPa | 0 mm | - | 623 W/m² | - |
| 1788098115 | 27.78° C | 43% | 1011.6 hPa | 0 mm | - | 643 W/m² | - |
| 1788097289 | 27.22° C | 41% | 1011.7 hPa | 0 mm | - | 643 W/m² | - |
| 1788096916 | 27.22° C | 40% | 1011.8 hPa | 0 mm | - | 656 W/m² | - |
| 1788096315 | 27.22° C | 40% | 1011.8 hPa | 0 mm | - | 689 W/m² | - |
| 1788095489 | 27.22° C | 40% | 1012 hPa | 0 mm | - | 669 W/m² | - |
| 1788095116 | 27.22° C | 43% | 1012 hPa | 0 mm | - | 722 W/m² | - |
* Rain latest hour (hover to see other rain measurements)
** Current wind speed in m/s (hover to see current wind gust speed)